Time;durP1;ratioP1;P1;durP2;ratioP2;P2;SDS_P1;SDS_P2;PMS_P1;PMS_P2;Temp;Humidity;BMP_temperature;BMP_pressure;BME280_temperature;BME280_humidity;BME280_pressure;Samples;Min_cycle;Max_cycle;Signal;HPM_P1;HPM_P2
2023/12/01 00:01:08;;;;;;;;;;;;;;;;;;4931110;28;19944;-71
2023/12/01 00:03:33;;;;;;;;;;;;;;;;;;4917289;29;20388;-70
2023/12/01 00:05:58;;;;;;;;;;;;;;;;;;4931005;28;20298;-70
2023/12/01 00:08:24;;;;;;;;;;;;;;;;;;4919395;29;19930;-70
2023/12/01 00:10:49;;;;;;;;;;;;;;;;;;4915879;29;20061;-70
2023/12/01 00:13:15;;;;;;;;;;;;;;;;;;4915367;29;20021;-70
2023/12/01 00:15:40;;;;;;;;;;;;;;;;;;4914501;29;19958;-70
2023/12/01 00:18:05;;;;;;;;;;;;;;;;;;4917695;29;19929;-71
2023/12/01 00:20:31;;;;;;;;;;;;;;;;;;4916636;29;19922;-71
2023/12/01 00:22:56;;;;;;;;;;;;;;;;;;4915734;29;19949;-70
2023/12/01 00:25:22;;;;;;;;;;;;;;;;;;4930642;28;20022;-70
2023/12/01 00:31:03;;;;;;;;;;;;;;;;;;4916927;29;20007;-70
2023/12/01 00:33:29;;;;;;;;;;;;;;;;;;4929989;28;19984;-70
2023/12/01 00:35:54;;;;;;;;;;;;;;;;;;4900656;29;19923;-69
2023/12/01 00:38:19;;;;;;;;;;;;;;;;;;4912907;29;19923;-70
2023/12/01 00:40:44;;;;;;;;;;;;;;;;;;4910795;29;19919;-70
2023/12/01 00:43:10;;;;;;;;;;;;;;;;;;4913843;29;20025;-70
2023/12/01 00:45:35;;;;;;;;;;;;;;;;;;4928319;28;20348;-71
2023/12/01 00:48:01;;;;;;;;;;;;;;;;;;4928071;28;20347;-70
2023/12/01 00:50:26;;;;;;;;;;;;;;;;;;4910433;29;19922;-70
2023/12/01 00:52:52;;;;;;;;;;;;;;;;;;4928159;28;20461;-69
2023/12/01 00:55:17;;;;;;;;;;;;;;;;;;4913018;29;20026;-70
2023/12/01 00:57:43;;;;;;;;;;;;;;;;;;4923401;28;20018;-69
2023/12/01 01:00:10;;;;;;;;;;;;;;;;;;4927214;28;19923;-70
2023/12/01 01:02:36;;;;;;;;;;;;;;;;;;4925928;28;20114;-70
2023/12/01 01:05:03;;;;;;;;;;;;;;;;;;4910785;29;20303;-70
2023/12/01 01:07:30;;;;;;;;;;;;;;;;;;4927568;28;19922;-69
2023/12/01 01:09:56;;;;;;;;;;;;;;;;;;4925836;28;19919;-69
2023/12/01 01:12:25;;;;;;;;;;;;;;;;;;4913015;29;19918;-69
2023/12/01 01:14:50;;;;;;;;;;;;;;;;;;4926162;28;19977;-69
2023/12/01 01:17:15;;;;;;;;;;;;;;;;;;4912774;29;20995;-69
2023/12/01 01:19:41;;;;;;;;;;;;;;;;;;4912144;29;20387;-69
2023/12/01 01:22:08;;;;;;;;;;;;;;;;;;4926497;28;19943;-68
2023/12/01 01:24:34;;;;;;;;;;;;;;;;;;4911549;29;19977;-68
2023/12/01 01:26:59;;;;;;;;;;;;;;;;;;4911776;29;19925;-68
2023/12/01 01:29:25;;;;;;;;;;;;;;;;;;4926121;28;20372;-67
2023/12/01 01:35:06;;;;;;;;;;;;;;;;;;4910269;29;19990;-69
2023/12/01 01:37:32;;;;;;;;;;;;;;;;;;4912450;29;21493;-68
2023/12/01 01:39:59;;;;;;;;;;;;;;;;;;4910685;28;19923;-68
2023/12/01 01:42:25;;;;;;;;;;;;;;;;;;4926149;28;19926;-69
2023/12/01 01:44:51;;;;;;;;;;;;;;;;;;4925120;28;20849;-69
2023/12/01 01:47:16;;;;;;;;;;;;;;;;;;4925700;28;20822;-68
2023/12/01 01:49:42;;;;;;;;;;;;;;;;;;4925655;28;19930;-68
2023/12/01 01:52:07;;;;;;;;;;;;;;;;;;4912634;29;20041;-69
2023/12/01 01:54:32;;;;;;;;;;;;;;;;;;4912422;29;19926;-68
2023/12/01 01:57:01;;;;;;;;;;;;;;;;;;4925608;28;19919;-69
2023/12/01 01:59:26;;;;;;;;;;;;;;;;;;4910137;29;20432;-68
2023/12/01 02:01:51;;;;;;;;;;;;;;;;;;4924834;28;20152;-68
2023/12/01 02:04:17;;;;;;;;;;;;;;;;;;4907964;29;19985;-68
2023/12/01 02:06:42;;;;;;;;;;;;;;;;;;4910314;29;19915;-68
2023/12/01 02:09:07;;;;;;;;;;;;;;;;;;4923918;28;19970;-68
2023/12/01 02:11:33;;;;;;;;;;;;;;;;;;4925867;28;20427;-68
2023/12/01 02:13:59;;;;;;;;;;;;;;;;;;4909752;29;19930;-69
2023/12/01 02:16:25;;;;;;;;;;;;;;;;;;4910578;29;19930;-68
2023/12/01 02:18:55;;;;;;;;;;;;;;;;;;4912672;29;20421;-68
2023/12/01 02:21:21;;;;;;;;;;;;;;;;;;4924944;28;19922;-69
2023/12/01 02:23:46;;;;;;;;;;;;;;;;;;4910725;29;19937;-68
2023/12/01 02:26:14;;;;;;;;;;;;;;;;;;4913500;29;19923;-68
2023/12/01 02:28:48;;;;;;;;;;;;;;;;;;4921732;28;20045;-68
2023/12/01 02:31:14;;;;;;;;;;;;;;;;;;4910071;29;19979;-68
2023/12/01 02:33:39;;;;;;;;;;;;;;;;;;4925030;28;20382;-67
2023/12/01 02:36:06;;;;;;;;;;;;;;;;;;4925232;28;20598;-68
2023/12/01 02:38:31;;;;;;;;;;;;;;;;;;4925604;28;19919;-68
2023/12/01 02:40:57;;;;;;;;;;;;;;;;;;4925434;28;21669;-67
2023/12/01 02:43:22;;;;;;;;;;;;;;;;;;4924723;28;20307;-67
2023/12/01 02:45:50;;;;;;;;;;;;;;;;;;4926082;28;19923;-67
2023/12/01 02:48:16;;;;;;;;;;;;;;;;;;4910036;29;19953;-67
2023/12/01 02:50:41;;;;;;;;;;;;;;;;;;4908819;29;20006;-67
2023/12/01 02:53:07;;;;;;;;;;;;;;;;;;4925414;28;20389;-68
2023/12/01 02:55:32;;;;;;;;;;;;;;;;;;4925828;28;20367;-68
2023/12/01 02:57:58;;;;;;;;;;;;;;;;;;4925513;28;20111;-66
2023/12/01 03:00:25;;;;;;;;;;;;;;;;;;4923118;28;19923;-67
2023/12/01 03:02:53;;;;;;;;;;;;;;;;;;4887436;29;19929;-66
2023/12/01 03:05:19;;;;;;;;;;;;;;;;;;4924769;28;19931;-66
2023/12/01 03:07:46;;;;;;;;;;;;;;;;;;4896338;29;19938;-65
2023/12/01 03:10:12;;;;;;;;;;;;;;;;;;4910851;29;19937;-65
2023/12/01 03:12:37;;;;;;;;;;;;;;;;;;4923829;28;20328;-66
2023/12/01 03:15:04;;;;;;;;;;;;;;;;;;4924671;28;21179;-65
2023/12/01 03:17:42;;;;;;;;;;;;;;;;;;4925502;28;19919;-65
2023/12/01 03:20:14;;;;;;;;;;;;;;;;;;4908065;29;19919;-65
2023/12/01 03:22:39;;;;;;;;;;;;;;;;;;4924854;28;20299;-65
2023/12/01 03:25:09;;;;;;;;;;;;;;;;;;4923986;28;20220;-64
2023/12/01 03:27:35;;;;;;;;;;;;;;;;;;4923405;28;19922;-65
2023/12/01 03:30:02;;;;;;;;;;;;;;;;;;4925078;28;19925;-64
2023/12/01 03:32:28;;;;;;;;;;;;;;;;;;4909007;29;19923;-65
2023/12/01 03:34:56;;;;;;;;;;;;;;;;;;4908587;29;22046;-65
2023/12/01 03:37:21;;;;;;;;;;;;;;;;;;4911321;29;19926;-64
2023/12/01 03:39:47;;;;;;;;;;;;;;;;;;4910076;29;20370;-64
2023/12/01 03:42:12;;;;;;;;;;;;;;;;;;4907331;29;19923;-64
2023/12/01 03:44:38;;;;;;;;;;;;;;;;;;4924101;28;19965;-64
2023/12/01 03:47:03;;;;;;;;;;;;;;;;;;4911375;29;20006;-64
2023/12/01 03:49:28;;;;;;;;;;;;;;;;;;4906342;29;19922;-64
2023/12/01 03:51:53;;;;;;;;;;;;;;;;;;4924165;28;20063;-64
2023/12/01 03:54:19;;;;;;;;;;;;;;;;;;4910993;29;19919;-63
2023/12/01 03:56:49;;;;;;;;;;;;;;;;;;4909980;29;19993;-63
2023/12/01 03:59:14;;;;;;;;;;;;;;;;;;4909602;29;19919;-63
2023/12/01 04:01:39;;;;;;;;;;;;;;;;;;4925461;28;20037;-63
2023/12/01 04:04:05;;;;;;;;;;;;;;;;;;4923706;28;19923;-64
2023/12/01 04:06:33;;;;;;;;;;;;;;;;;;4922283;28;19941;-64
2023/12/01 04:09:05;;;;;;;;;;;;;;;;;;4910411;29;20327;-64
2023/12/01 04:11:30;;;;;;;;;;;;;;;;;;4907808;29;19919;-64
2023/12/01 04:13:55;;;;;;;;;;;;;;;;;;4911320;29;19925;-64
2023/12/01 04:16:24;;;;;;;;;;;;;;;;;;4928079;28;20074;-64
2023/12/01 04:18:50;;;;;;;;;;;;;;;;;;4912994;29;20039;-63
2023/12/01 04:21:15;;;;;;;;;;;;;;;;;;4924614;28;19944;-64
2023/12/01 04:23:43;;;;;;;;;;;;;;;;;;4928862;28;19938;-64
2023/12/01 04:26:08;;;;;;;;;;;;;;;;;;4928091;28;19922;-64
2023/12/01 04:28:33;;;;;;;;;;;;;;;;;;4927451;28;19946;-63
2023/12/01 04:30:59;;;;;;;;;;;;;;;;;;4927199;28;20740;-63
2023/12/01 04:33:24;;;;;;;;;;;;;;;;;;4912913;29;20017;-63
2023/12/01 04:35:52;;;;;;;;;;;;;;;;;;4925887;28;19919;-63
2023/12/01 04:38:20;;;;;;;;;;;;;;;;;;4927936;28;20462;-63
2023/12/01 04:40:46;;;;;;;;;;;;;;;;;;4926321;28;19942;-64
2023/12/01 04:43:13;;;;;;;;;;;;;;;;;;4928016;28;19935;-64
2023/12/01 04:45:42;;;;;;;;;;;;;;;;;;4925393;28;19997;-64
2023/12/01 04:48:07;;;;;;;;;;;;;;;;;;4911353;29;19922;-63
2023/12/01 04:50:33;;;;;;;;;;;;;;;;;;4926318;28;20187;-64
2023/12/01 04:52:58;;;;;;;;;;;;;;;;;;4928829;28;19923;-64
2023/12/01 04:55:23;;;;;;;;;;;;;;;;;;4912671;29;19935;-64
2023/12/01 04:57:49;;;;;;;;;;;;;;;;;;4912807;29;19918;-63
2023/12/01 05:00:21;;;;;;;;;;;;;;;;;;4924131;28;19915;-63
2023/12/01 05:02:48;;;;;;;;;;;;;;;;;;4913908;29;20214;-63
2023/12/01 05:05:13;;;;;;;;;;;;;;;;;;4910079;29;19974;-63
2023/12/01 05:07:41;;;;;;;;;;;;;;;;;;4907923;29;19933;-63
2023/12/01 05:10:08;;;;;;;;;;;;;;;;;;4927081;28;21589;-63
2023/12/01 05:12:33;;;;;;;;;;;;;;;;;;4912962;29;19974;-64
2023/12/01 05:14:59;;;;;;;;;;;;;;;;;;4909663;29;19927;-64
2023/12/01 05:17:29;;;;;;;;;;;;;;;;;;4911161;29;19919;-64
2023/12/01 05:19:57;;;;;;;;;;;;;;;;;;4927053;28;19918;-63
2023/12/01 05:22:25;;;;;;;;;;;;;;;;;;4925665;28;19931;-63
2023/12/01 05:24:50;;;;;;;;;;;;;;;;;;4919745;28;19946;-64
2023/12/01 05:27:15;;;;;;;;;;;;;;;;;;4911114;29;20034;-64
2023/12/01 05:29:41;;;;;;;;;;;;;;;;;;4911827;29;20010;-64
2023/12/01 05:32:08;;;;;;;;;;;;;;;;;;4928741;28;19930;-64
2023/12/01 05:34:34;;;;;;;;;;;;;;;;;;4924396;28;19923;-63
2023/12/01 05:36:59;;;;;;;;;;;;;;;;;;4909877;29;19923;-63
2023/12/01 05:39:24;;;;;;;;;;;;;;;;;;4919753;28;19932;-63
2023/12/01 05:41:50;;;;;;;;;;;;;;;;;;4928572;28;19925;-64
2023/12/01 05:44:18;;;;;;;;;;;;;;;;;;4910195;29;19926;-63
2023/12/01 05:46:43;;;;;;;;;;;;;;;;;;4927165;28;19923;-63
2023/12/01 05:49:10;;;;;;;;;;;;;;;;;;4913452;29;19923;-63
2023/12/01 05:51:36;;;;;;;;;;;;;;;;;;4911993;29;20387;-64
2023/12/01 05:54:01;;;;;;;;;;;;;;;;;;4911865;29;19922;-64
2023/12/01 05:56:30;;;;;;;;;;;;;;;;;;4907624;29;19926;-64
2023/12/01 05:58:55;;;;;;;;;;;;;;;;;;4925042;28;19950;-64
2023/12/01 06:01:25;;;;;;;;;;;;;;;;;;4924519;28;20278;-64
2023/12/01 06:03:50;;;;;;;;;;;;;;;;;;4908101;29;19926;-63
2023/12/01 06:06:16;;;;;;;;;;;;;;;;;;4904601;29;19923;-64
2023/12/01 06:08:42;;;;;;;;;;;;;;;;;;4911139;29;19923;-65
2023/12/01 06:11:08;;;;;;;;;;;;;;;;;;4893977;29;19948;-62
2023/12/01 06:13:37;;;;;;;;;;;;;;;;;;4889366;29;20355;-64
2023/12/01 06:16:02;;;;;;;;;;;;;;;;;;4920077;28;19923;-64
2023/12/01 06:18:29;;;;;;;;;;;;;;;;;;4923774;28;19923;-64
2023/12/01 06:20:55;;;;;;;;;;;;;;;;;;4902820;29;19923;-64
2023/12/01 06:23:20;;;;;;;;;;;;;;;;;;4888214;29;20778;-62
2023/12/01 06:25:46;;;;;;;;;;;;;;;;;;4891335;29;19923;-63
2023/12/01 06:28:15;;;;;;;;;;;;;;;;;;4906812;29;19919;-63
2023/12/01 06:30:40;;;;;;;;;;;;;;;;;;4922198;28;19920;-63
2023/12/01 06:33:08;;;;;;;;;;;;;;;;;;4922301;28;20017;-63
2023/12/01 06:35:33;;;;;;;;;;;;;;;;;;4922096;28;19923;-63
2023/12/01 06:37:58;;;;;;;;;;;;;;;;;;4923423;28;19939;-64
2023/12/01 06:40:24;;;;;;;;;;;;;;;;;;4893283;29;19927;-64
2023/12/01 06:42:49;;;;;;;;;;;;;;;;;;4908598;29;19923;-64
2023/12/01 06:45:17;;;;;;;;;;;;;;;;;;4907520;29;20552;-63
2023/12/01 06:47:43;;;;;;;;;;;;;;;;;;4922655;28;19958;-63
2023/12/01 06:50:11;;;;;;;;;;;;;;;;;;4906141;29;19924;-64
2023/12/01 06:52:36;;;;;;;;;;;;;;;;;;4921629;28;20033;-63
2023/12/01 06:55:04;;;;;;;;;;;;;;;;;;4921906;28;20001;-64
2023/12/01 06:57:30;;;;;;;;;;;;;;;;;;4917979;28;20098;-64
2023/12/01 06:59:58;;;;;;;;;;;;;;;;;;4924177;28;19974;-63
2023/12/01 07:02:23;;;;;;;;;;;;;;;;;;4922987;28;19966;-64
2023/12/01 07:04:48;;;;;;;;;;;;;;;;;;4897869;29;19927;-64
2023/12/01 07:07:14;;;;;;;;;;;;;;;;;;4924499;28;20430;-64
2023/12/01 07:09:39;;;;;;;;;;;;;;;;;;4911233;29;19923;-64
2023/12/01 07:12:05;;;;;;;;;;;;;;;;;;4910187;29;19923;-64
2023/12/01 07:14:36;;;;;;;;;;;;;;;;;;4910779;29;20722;-63
2023/12/01 07:17:01;;;;;;;;;;;;;;;;;;4923197;28;20435;-64
2023/12/01 07:19:26;;;;;;;;;;;;;;;;;;4925659;28;19929;-64
2023/12/01 07:21:52;;;;;;;;;;;;;;;;;;4925535;28;19929;-65
2023/12/01 07:24:20;;;;;;;;;;;;;;;;;;4926850;28;19957;-65
2023/12/01 07:26:51;;;;;;;;;;;;;;;;;;4911015;29;20335;-65
2023/12/01 07:29:20;;;;;;;;;;;;;;;;;;4908498;29;20506;-65
2023/12/01 07:31:45;;;;;;;;;;;;;;;;;;4911853;29;20840;-65
2023/12/01 07:34:11;;;;;;;;;;;;;;;;;;4910258;29;19926;-64
2023/12/01 07:36:36;;;;;;;;;;;;;;;;;;4925305;28;19977;-65
2023/12/01 07:39:02;;;;;;;;;;;;;;;;;;4911248;29;19985;-64
2023/12/01 07:41:27;;;;;;;;;;;;;;;;;;4925610;28;19923;-64
2023/12/01 07:43:52;;;;;;;;;;;;;;;;;;4924294;28;19934;-63
2023/12/01 07:46:17;;;;;;;;;;;;;;;;;;4928041;28;20448;-64
2023/12/01 07:48:43;;;;;;;;;;;;;;;;;;4913685;29;19919;-64
2023/12/01 07:51:11;;;;;;;;;;;;;;;;;;4927940;28;19923;-64
2023/12/01 07:53:40;;;;;;;;;;;;;;;;;;4916045;29;19998;-65
2023/12/01 07:56:05;;;;;;;;;;;;;;;;;;4912907;29;19969;-65
2023/12/01 07:58:30;;;;;;;;;;;;;;;;;;4928288;28;20394;-66
2023/12/01 08:00:57;;;;;;;;;;;;;;;;;;4930505;28;20366;-66
2023/12/01 08:03:23;;;;;;;;;;;;;;;;;;4929945;28;19923;-65
2023/12/01 08:05:48;;;;;;;;;;;;;;;;;;4912992;29;20401;-65
2023/12/01 08:08:17;;;;;;;;;;;;;;;;;;4915252;29;20347;-65
2023/12/01 08:10:42;;;;;;;;;;;;;;;;;;4928715;28;19974;-64
2023/12/01 08:13:10;;;;;;;;;;;;;;;;;;4915018;29;19922;-65
2023/12/01 08:15:35;;;;;;;;;;;;;;;;;;4915759;29;20296;-66
2023/12/01 08:18:01;;;;;;;;;;;;;;;;;;4929259;28;19919;-66
2023/12/01 08:20:29;;;;;;;;;;;;;;;;;;4913202;29;20009;-64
2023/12/01 08:22:57;;;;;;;;;;;;;;;;;;4929402;28;20355;-65
2023/12/01 08:25:22;;;;;;;;;;;;;;;;;;4910238;29;19923;-65
2023/12/01 08:27:48;;;;;;;;;;;;;;;;;;4926920;28;19945;-66
2023/12/01 08:30:16;;;;;;;;;;;;;;;;;;4915015;29;20024;-65
2023/12/01 08:32:42;;;;;;;;;;;;;;;;;;4926946;28;19933;-66
2023/12/01 08:35:08;;;;;;;;;;;;;;;;;;4929719;28;19919;-66
2023/12/01 08:37:34;;;;;;;;;;;;;;;;;;4914876;28;19918;-65
2023/12/01 08:39:59;;;;;;;;;;;;;;;;;;4910894;29;20444;-66
2023/12/01 08:42:24;;;;;;;;;;;;;;;;;;4929875;28;19919;-65
2023/12/01 08:44:50;;;;;;;;;;;;;;;;;;4926770;28;19922;-67
2023/12/01 08:47:20;;;;;;;;;;;;;;;;;;4930707;28;19918;-66
2023/12/01 08:49:45;;;;;;;;;;;;;;;;;;4926603;28;19923;-65
2023/12/01 08:52:10;;;;;;;;;;;;;;;;;;4929286;28;19919;-66
2023/12/01 08:54:36;;;;;;;;;;;;;;;;;;4929702;28;19923;-66
2023/12/01 08:57:03;;;;;;;;;;;;;;;;;;4927585;28;19926;-66
2023/12/01 08:59:29;;;;;;;;;;;;;;;;;;4915008;29;19923;-66
2023/12/01 09:01:54;;;;;;;;;;;;;;;;;;4914033;29;20451;-66
2023/12/01 09:04:21;;;;;;;;;;;;;;;;;;4912988;29;19930;-66
2023/12/01 09:06:48;;;;;;;;;;;;;;;;;;4914525;29;20213;-66
2023/12/01 09:09:14;;;;;;;;;;;;;;;;;;4910817;29;19930;-66
2023/12/01 09:11:51;;;;;;;;;;;;;;;;;;4911102;29;19962;-65
2023/12/01 09:14:19;;;;;;;;;;;;;;;;;;4927056;28;19962;-65
2023/12/01 09:16:44;;;;;;;;;;;;;;;;;;4914358;29;20461;-66
2023/12/01 09:19:10;;;;;;;;;;;;;;;;;;4929543;28;19926;-66
2023/12/01 09:21:36;;;;;;;;;;;;;;;;;;4926807;28;20029;-66
2023/12/01 09:24:03;;;;;;;;;;;;;;;;;;4926679;28;19927;-68
2023/12/01 09:26:29;;;;;;;;;;;;;;;;;;4898305;29;20269;-65
2023/12/01 09:28:54;;;;;;;;;;;;;;;;;;4928562;28;20348;-66
2023/12/01 09:31:21;;;;;;;;;;;;;;;;;;4912484;29;19938;-66
2023/12/01 09:33:47;;;;;;;;;;;;;;;;;;4929633;28;20176;-66
2023/12/01 09:36:12;;;;;;;;;;;;;;;;;;4926228;28;19926;-65
2023/12/01 09:38:37;;;;;;;;;;;;;;;;;;4928607;28;19986;-66
2023/12/01 09:41:03;;;;;;;;;;;;;;;;;;4912636;29;20266;-66
2023/12/01 09:43:28;;;;;;;;;;;;;;;;;;4924336;28;19927;-66
2023/12/01 09:45:53;;;;;;;;;;;;;;;;;;4926082;28;20017;-66
2023/12/01 09:48:21;;;;;;;;;;;;;;;;;;4911934;29;20013;-66
2023/12/01 09:50:46;;;;;;;;;;;;;;;;;;4911412;29;19923;-66
2023/12/01 09:53:12;;;;;;;;;;;;;;;;;;4913649;29;19950;-66
2023/12/01 09:55:40;;;;;;;;;;;;;;;;;;4927061;28;19915;-66
2023/12/01 09:58:05;;;;;;;;;;;;;;;;;;4913330;29;20159;-66
2023/12/01 10:00:30;;;;;;;;;;;;;;;;;;4910272;29;20505;-65
2023/12/01 10:02:58;;;;;;;;;;;;;;;;;;4910453;29;20035;-66
2023/12/01 10:05:25;;;;;;;;;;;;;;;;;;4926076;28;20271;-66
2023/12/01 10:14:00;;;;;;;;;;;;;;;;;;4925973;28;19915;-67
2023/12/01 10:16:25;;;;;;;;;;;;;;;;;;4911013;29;19934;-67
2023/12/01 10:19:05;;;;;;;;;;;;;;;;;;4927449;28;19926;-65
2023/12/01 10:21:31;;;;;;;;;;;;;;;;;;4927138;28;20143;-67
2023/12/01 10:23:56;;;;;;;;;;;;;;;;;;4912588;29;20419;-68
2023/12/01 10:29:44;;;;;;;;;;;;;;;;;;4912548;29;20339;-66
2023/12/01 10:32:11;;;;;;;;;;;;;;;;;;4927501;28;20344;-68
2023/12/01 10:34:37;;;;;;;;;;;;;;;;;;4912358;29;19957;-68
2023/12/01 10:37:03;;;;;;;;;;;;;;;;;;4927005;28;20421;-67
2023/12/01 10:39:29;;;;;;;;;;;;;;;;;;4912660;29;19919;-68
2023/12/01 10:41:56;;;;;;;;;;;;;;;;;;4912461;29;19981;-68
2023/12/01 10:44:24;;;;;;;;;;;;;;;;;;4922281;28;19928;-67
2023/12/01 10:46:49;;;;;;;;;;;;;;;;;;4909630;29;19923;-68
2023/12/01 10:49:17;;;;;;;;;;;;;;;;;;4925615;28;20220;-67
2023/12/01 10:51:42;;;;;;;;;;;;;;;;;;4926704;28;19923;-67
2023/12/01 10:54:08;;;;;;;;;;;;;;;;;;4925536;28;19977;-67
2023/12/01 10:56:33;;;;;;;;;;;;;;;;;;4926564;28;19980;-67
2023/12/01 10:58:58;;;;;;;;;;;;;;;;;;4911132;29;19952;-68
2023/12/01 11:01:24;;;;;;;;;;;;;;;;;;4911241;28;20692;-67
2023/12/01 11:03:49;;;;;;;;;;;;;;;;;;4911689;29;19927;-66
2023/12/01 11:06:15;;;;;;;;;;;;;;;;;;4910096;29;20006;-67
2023/12/01 11:08:42;;;;;;;;;;;;;;;;;;4911530;29;19919;-67
2023/12/01 11:11:08;;;;;;;;;;;;;;;;;;4909553;29;20579;-66
2023/12/01 11:13:36;;;;;;;;;;;;;;;;;;4911624;29;20420;-67
2023/12/01 11:16:05;;;;;;;;;;;;;;;;;;4911234;29;20020;-66
2023/12/01 11:18:33;;;;;;;;;;;;;;;;;;4925850;28;20382;-66
2023/12/01 11:20:58;;;;;;;;;;;;;;;;;;4911401;29;19919;-69
2023/12/01 11:23:23;;;;;;;;;;;;;;;;;;4926288;28;19927;-67
2023/12/01 11:25:49;;;;;;;;;;;;;;;;;;4912269;29;19970;-67
2023/12/01 11:28:20;;;;;;;;;;;;;;;;;;4909796;29;19990;-67
2023/12/01 11:30:45;;;;;;;;;;;;;;;;;;4912848;29;19918;-65
2023/12/01 11:33:11;;;;;;;;;;;;;;;;;;4910045;29;19929;-67
2023/12/01 11:35:36;;;;;;;;;;;;;;;;;;4909902;29;19985;-67
2023/12/01 11:38:05;;;;;;;;;;;;;;;;;;4910852;29;20033;-66
2023/12/01 11:40:33;;;;;;;;;;;;;;;;;;4909893;29;20048;-68
2023/12/01 11:42:59;;;;;;;;;;;;;;;;;;4909465;29;20206;-67
2023/12/01 11:45:25;;;;;;;;;;;;;;;;;;4912380;29;19973;-67
2023/12/01 11:47:50;;;;;;;;;;;;;;;;;;4912228;29;19934;-67
2023/12/01 11:50:15;;;;;;;;;;;;;;;;;;4910237;29;19919;-67
2023/12/01 11:52:41;;;;;;;;;;;;;;;;;;4909520;29;20359;-66
2023/12/01 11:55:09;;;;;;;;;;;;;;;;;;4926165;28;20001;-67
2023/12/01 11:57:34;;;;;;;;;;;;;;;;;;4912368;29;19923;-66
2023/12/01 12:00:02;;;;;;;;;;;;;;;;;;4911815;29;19990;-65
2023/12/01 12:02:28;;;;;;;;;;;;;;;;;;4926116;28;19959;-67
2023/12/01 12:04:53;;;;;;;;;;;;;;;;;;4924599;28;20338;-65
2023/12/01 12:07:21;;;;;;;;;;;;;;;;;;4909215;29;19923;-66
2023/12/01 12:09:47;;;;;;;;;;;;;;;;;;4925333;28;19930;-66
2023/12/01 12:12:13;;;;;;;;;;;;;;;;;;4923600;28;19923;-65
2023/12/01 12:14:40;;;;;;;;;;;;;;;;;;4926249;28;19970;-67
2023/12/01 12:17:05;;;;;;;;;;;;;;;;;;4925505;28;19933;-64
2023/12/01 12:22:47;;;;;;;;;;;;;;;;;;4911883;29;20013;-65
2023/12/01 12:25:12;;;;;;;;;;;;;;;;;;4925581;28;20061;-66
2023/12/01 12:27:40;;;;;;;;;;;;;;;;;;4909065;29;19942;-66
2023/12/01 12:30:06;;;;;;;;;;;;;;;;;;4908220;29;19992;-65
2023/12/01 12:32:31;;;;;;;;;;;;;;;;;;4909729;29;19941;-66
2023/12/01 12:34:56;;;;;;;;;;;;;;;;;;4928067;28;19974;-66
2023/12/01 12:37:22;;;;;;;;;;;;;;;;;;4928279;28;19989;-66
2023/12/01 12:39:47;;;;;;;;;;;;;;;;;;4915145;29;19989;-66
2023/12/01 12:42:12;;;;;;;;;;;;;;;;;;4927583;28;20395;-66
2023/12/01 12:44:38;;;;;;;;;;;;;;;;;;4928093;28;19948;-66
2023/12/01 12:47:06;;;;;;;;;;;;;;;;;;4929327;28;20010;-66
2023/12/01 12:49:31;;;;;;;;;;;;;;;;;;4928723;28;19929;-66
2023/12/01 12:51:56;;;;;;;;;;;;;;;;;;4926532;28;19923;-66
2023/12/01 12:54:22;;;;;;;;;;;;;;;;;;4929640;28;20405;-66
2023/12/01 12:56:48;;;;;;;;;;;;;;;;;;4913403;29;20025;-67
2023/12/01 12:59:16;;;;;;;;;;;;;;;;;;4928747;28;19954;-67
2023/12/01 13:01:44;;;;;;;;;;;;;;;;;;4930680;28;20035;-66
2023/12/01 13:04:09;;;;;;;;;;;;;;;;;;4912239;29;20269;-67
2023/12/01 13:06:35;;;;;;;;;;;;;;;;;;4928593;28;19927;-67
2023/12/01 13:09:02;;;;;;;;;;;;;;;;;;4913807;29;20020;-67
2023/12/01 13:11:27;;;;;;;;;;;;;;;;;;4928627;28;20143;-67
2023/12/01 13:13:55;;;;;;;;;;;;;;;;;;4926908;28;20548;-67
2023/12/01 13:19:15;;;;;;;;;;;;;;;;;;4913052;29;20418;-67
2023/12/01 13:21:40;;;;;;;;;;;;;;;;;;4912355;29;19926;-68
2023/12/01 13:24:09;;;;;;;;;;;;;;;;;;4909576;29;19927;-67
2023/12/01 13:26:34;;;;;;;;;;;;;;;;;;4923515;28;19923;-68
2023/12/01 13:28:59;;;;;;;;;;;;;;;;;;4912732;29;19925;-67
2023/12/01 13:31:27;;;;;;;;;;;;;;;;;;4913890;29;20432;-68
2023/12/01 13:33:55;;;;;;;;;;;;;;;;;;4914891;29;19951;-67
2023/12/01 13:36:26;;;;;;;;;;;;;;;;;;4912353;29;20288;-67
2023/12/01 13:38:53;;;;;;;;;;;;;;;;;;4914277;29;19929;-67
2023/12/01 13:41:18;;;;;;;;;;;;;;;;;;4928050;28;20372;-67
2023/12/01 13:43:44;;;;;;;;;;;;;;;;;;4913908;29;19918;-67
2023/12/01 13:46:12;;;;;;;;;;;;;;;;;;4910714;29;20287;-68
2023/12/01 13:48:37;;;;;;;;;;;;;;;;;;4926537;28;19973;-68
2023/12/01 13:51:03;;;;;;;;;;;;;;;;;;4910839;29;20036;-66
2023/12/01 13:53:28;;;;;;;;;;;;;;;;;;4927426;28;19938;-67
2023/12/01 13:55:53;;;;;;;;;;;;;;;;;;4927566;28;19949;-67
2023/12/01 13:58:19;;;;;;;;;;;;;;;;;;4911763;29;19987;-67
2023/12/01 14:00:45;;;;;;;;;;;;;;;;;;4927357;28;20306;-67
2023/12/01 14:03:13;;;;;;;;;;;;;;;;;;4913196;29;19978;-67
2023/12/01 14:05:38;;;;;;;;;;;;;;;;;;4927327;28;19932;-68
2023/12/01 14:08:04;;;;;;;;;;;;;;;;;;4926767;28;19972;-66
2023/12/01 14:13:46;;;;;;;;;;;;;;;;;;4911411;29;19942;-67
2023/12/01 14:16:11;;;;;;;;;;;;;;;;;;4925678;28;20333;-67
2023/12/01 14:18:37;;;;;;;;;;;;;;;;;;4915080;29;20005;-66
2023/12/01 14:21:03;;;;;;;;;;;;;;;;;;4920527;28;19923;-65
2023/12/01 14:23:31;;;;;;;;;;;;;;;;;;4912771;29;20387;-66
2023/12/01 14:25:56;;;;;;;;;;;;;;;;;;4922787;28;20005;-64
2023/12/01 14:28:22;;;;;;;;;;;;;;;;;;4910418;29;20314;-65
2023/12/01 14:30:49;;;;;;;;;;;;;;;;;;4924811;28;20009;-64
2023/12/01 14:33:15;;;;;;;;;;;;;;;;;;4924305;28;19919;-65
2023/12/01 14:35:42;;;;;;;;;;;;;;;;;;4922656;28;19949;-65
2023/12/01 14:38:08;;;;;;;;;;;;;;;;;;4905174;29;19930;-65
2023/12/01 14:40:35;;;;;;;;;;;;;;;;;;4924504;28;19926;-65
2023/12/01 14:43:03;;;;;;;;;;;;;;;;;;4923462;28;19926;-66
2023/12/01 14:45:31;;;;;;;;;;;;;;;;;;4924086;28;19923;-65
2023/12/01 14:47:56;;;;;;;;;;;;;;;;;;4924849;28;19919;-66
2023/12/01 14:50:24;;;;;;;;;;;;;;;;;;4909049;29;20530;-65
2023/12/01 14:52:52;;;;;;;;;;;;;;;;;;4925409;28;19978;-66
2023/12/01 14:55:17;;;;;;;;;;;;;;;;;;4908845;29;19926;-66
2023/12/01 14:57:45;;;;;;;;;;;;;;;;;;4909727;29;20018;-66
2023/12/01 15:00:14;;;;;;;;;;;;;;;;;;4923259;28;19918;-65
2023/12/01 15:02:39;;;;;;;;;;;;;;;;;;4924238;28;20087;-65
2023/12/01 15:05:10;;;;;;;;;;;;;;;;;;4924069;28;19933;-65
2023/12/01 15:07:35;;;;;;;;;;;;;;;;;;4910409;29;22040;-66
2023/12/01 15:10:00;;;;;;;;;;;;;;;;;;4909791;29;19926;-65
2023/12/01 15:12:26;;;;;;;;;;;;;;;;;;4909226;29;21382;-65
2023/12/01 15:14:54;;;;;;;;;;;;;;;;;;4923001;28;19990;-66
2023/12/01 15:17:19;;;;;;;;;;;;;;;;;;4926104;28;20430;-66
2023/12/01 15:19:44;;;;;;;;;;;;;;;;;;4908264;29;19918;-66
2023/12/01 15:22:10;;;;;;;;;;;;;;;;;;4926534;28;20022;-66
2023/12/01 15:24:38;;;;;;;;;;;;;;;;;;4908376;29;19927;-66
2023/12/01 15:27:03;;;;;;;;;;;;;;;;;;4909722;29;19934;-65
2023/12/01 15:29:31;;;;;;;;;;;;;;;;;;4911204;29;20041;-65
2023/12/01 15:32:02;;;;;;;;;;;;;;;;;;4924504;28;19945;-65
2023/12/01 15:34:27;;;;;;;;;;;;;;;;;;4924766;28;19946;-66
2023/12/01 15:36:52;;;;;;;;;;;;;;;;;;4923695;28;19922;-65
2023/12/01 15:39:33;;;;;;;;;;;;;;;;;;4926498;28;19978;-66
2023/12/01 15:41:58;;;;;;;;;;;;;;;;;;4908697;29;19923;-66
2023/12/01 15:44:23;;;;;;;;;;;;;;;;;;4925681;28;19985;-65
2023/12/01 15:46:49;;;;;;;;;;;;;;;;;;4924699;28;19923;-66
2023/12/01 15:49:14;;;;;;;;;;;;;;;;;;4923968;28;21233;-66
2023/12/01 15:51:42;;;;;;;;;;;;;;;;;;4924828;28;19923;-66
2023/12/01 15:54:07;;;;;;;;;;;;;;;;;;4926241;28;19979;-64
2023/12/01 15:56:32;;;;;;;;;;;;;;;;;;4910955;29;20042;-65
2023/12/01 15:59:00;;;;;;;;;;;;;;;;;;4911106;29;20392;-65
2023/12/01 16:01:28;;;;;;;;;;;;;;;;;;4926332;28;20382;-66
2023/12/01 16:03:53;;;;;;;;;;;;;;;;;;4910145;29;19923;-64
2023/12/01 16:06:18;;;;;;;;;;;;;;;;;;4909785;28;20207;-64
2023/12/01 16:08:49;;;;;;;;;;;;;;;;;;4913754;28;19957;-65
2023/12/01 16:11:17;;;;;;;;;;;;;;;;;;4925960;28;19919;-65
2023/12/01 16:13:47;;;;;;;;;;;;;;;;;;4929352;28;19978;-65
2023/12/01 16:16:18;;;;;;;;;;;;;;;;;;4911584;29;20378;-65
2023/12/01 16:18:43;;;;;;;;;;;;;;;;;;4929123;28;19918;-65
2023/12/01 16:21:11;;;;;;;;;;;;;;;;;;4911571;29;20378;-65
2023/12/01 16:23:36;;;;;;;;;;;;;;;;;;4913998;29;20355;-65
2023/12/01 16:26:02;;;;;;;;;;;;;;;;;;4897974;29;19923;-66
2023/12/01 16:28:27;;;;;;;;;;;;;;;;;;4928621;28;19927;-65
2023/12/01 16:30:55;;;;;;;;;;;;;;;;;;4926848;28;20011;-65
2023/12/01 16:33:23;;;;;;;;;;;;;;;;;;4928193;28;19974;-65
2023/12/01 16:35:49;;;;;;;;;;;;;;;;;;4913358;29;19927;-65
2023/12/01 16:38:19;;;;;;;;;;;;;;;;;;4929921;28;20017;-66
2023/12/01 16:40:44;;;;;;;;;;;;;;;;;;4927560;28;19937;-65
2023/12/01 16:43:11;;;;;;;;;;;;;;;;;;4912554;29;20283;-65
2023/12/01 16:45:36;;;;;;;;;;;;;;;;;;4928383;28;19958;-65
2023/12/01 16:48:01;;;;;;;;;;;;;;;;;;4929331;28;19973;-65
2023/12/01 16:50:30;;;;;;;;;;;;;;;;;;4924930;28;20139;-65
2023/12/01 16:52:57;;;;;;;;;;;;;;;;;;4913741;29;20299;-65
2023/12/01 16:55:22;;;;;;;;;;;;;;;;;;4927987;28;19915;-65
2023/12/01 16:57:48;;;;;;;;;;;;;;;;;;4927253;28;19926;-65
2023/12/01 17:00:13;;;;;;;;;;;;;;;;;;4927266;28;19946;-64
2023/12/01 17:02:39;;;;;;;;;;;;;;;;;;4928540;28;19923;-66
2023/12/01 17:05:09;;;;;;;;;;;;;;;;;;4924745;28;19927;-63